Home   Weather   Stege   Past weeks
Flag for Denmark

Past Weather in Stege, Denmark — Yesterday and Last 2 Weeks

Currently: 48 °F. Clear. (Weather station: Koebenhavn / Roskilde, Denmark). See more current weather

Past Weather in Stege — Graph

°F

Stege Temperature Yesterday

Maximum temperature yesterday: 70 °F (at 1:20 pm)
Minimum temperature yesterday: 50 °F (at 3:50 am)
Average temperature yesterday: 59 °F

High & Low Weather Summary for the Past Weeks

 TemperatureHumidityPressure
High72 °F (May 18, 1:20 pm)100% (May 5, 3:20 am)30.33 "Hg (May 5, 3:20 am)
Low39 °F (May 8, 2:50 am)34% (May 13, 2:50 pm)29.62 "Hg (May 6, 4:50 am)
Average55 °F70%30.07 "Hg
* Reported May 5 3:20 am — May 20 3:50 am, Stege. Weather by CustomWeather, © 2024

Note: Actual official high and low records may vary slightly from our data, if they occured in-between our weather recording intervals... More about our weather records

Stege Weather History for the Previous 24 Hours

Scroll right to see more
 ConditionsComfort  
Time TempWeatherWind HumidityBarometerVisibility
3:50 am
Mon, May 20
50 °FClear.3 mph94%29.89 "HgN/A
3:20 am48 °FClear.2 mph94%29.89 "HgN/A
2:50 am50 °FClear.2 mph94%29.89 "HgN/A
2:20 am50 °FClear.1 mph94%29.89 "HgN/A
1:50 am50 °FPassing clouds.No wind94%29.89 "HgN/A
1:20 am52 °FClear.1 mph94%29.89 "HgN/A
12:50 am52 °FClear.2 mph88%29.89 "HgN/A
12:20 am52 °FClear.1 mph94%29.89 "HgN/A
11:50 pm
Sun, May 19
50 °FClear.1 mph94%29.89 "HgN/A
11:20 pm54 °FClear.2 mph82%29.89 "HgN/A
10:50 pm54 °FClear.1 mph82%29.89 "HgN/A
10:20 pm54 °FClear.6 mph82%29.89 "HgN/A
9:50 pm59 °FClear.2 mph72%29.89 "HgN/A
9:20 pm57 °FClear.3 mph77%29.86 "HgN/A
8:50 pm61 °FClear.1 mph68%29.86 "HgN/A
8:20 pm63 °FClear.2 mph64%29.86 "HgN/A
7:50 pm63 °FClear.3 mph68%29.86 "HgN/A
7:20 pm63 °FClear.3 mph68%29.86 "HgN/A
6:50 pm64 °FClear.5 mph60%29.86 "HgN/A
6:20 pm64 °FClear.7 mph64%29.83 "HgN/A
5:50 pm66 °FClear.7 mph60%29.86 "HgN/A
5:20 pm66 °FClear.7 mph60%29.86 "HgN/A
4:50 pm66 °FClear.8 mph56%29.86 "HgN/A
4:20 pm66 °FClear.8 mph60%29.86 "HgN/A
3:20 pm68 °FClear.8 mph53%29.86 "HgN/A
2:50 pm68 °FClear.8 mph56%29.86 "HgN/A
1:50 pm68 °FClear.9 mph56%29.89 "HgN/A
1:20 pm70 °FClear.9 mph57%29.89 "HgN/A
1:10 pm68 °FPassing clouds.9 mph56%29.89 "HgN/A
12:20 pm66 °FSunny.10 mph60%29.89 "Hg10 mi
11:50 am68 °FPassing clouds.6 mph53%29.89 "HgN/A
11:21 am68 °FPassing clouds.6 mph53%29.89 "HgN/A
10:22 am64 °FSunny.3 mph60%29.89 "Hg10 mi
9:44 am63 °FSunny.2 mph68%29.89 "Hg10 mi
9:20 am61 °FPartly sunny.3 mph68%29.89 "HgN/A
8:50 am59 °FPartly sunny.5 mph68%29.89 "HgN/A
8:20 am59 °FBroken clouds.2 mph68%29.89 "HgN/A
7:50 am57 °FPartly sunny.3 mph67%29.89 "HgN/A
7:20 am55 °FPartly sunny.2 mph72%29.89 "HgN/A
6:50 am54 °FPartly sunny.1 mph72%29.89 "HgN/A
6:20 am50 °FPartly sunny.3 mph82%29.89 "HgN/A
5:50 am50 °FPartly sunny.3 mph82%29.89 "HgN/A
5:20 am50 °FPartly sunny.3 mph82%29.89 "HgN/A
Weather by CustomWeather, © 2024

See weather overview